Saint Andrews, Tennessee
Current Conditions -  °F | °C
As of 6:55 PM on Friday 24 Oct 2014 (Local Time) from KBGF Reporting Station
Clear Clear  
Wind Chill: 52°   Ceiling: Unl
Heat Index: 52°   Visibility: 10mi
Dew Point: 45°   Wind: 0mph
Humidity: 76%   Direction: NA
Pressure: 30.08"   Gusts: NA
Location:  35.21°N, 85.89°W
Report Text: KBGF 242355Z AUTO 00000KT 10SM CLR 11/07 A3008 RMK
Loading
Personal Weather Stations






























Interactive Weather Map
Tropical Storm Tracking
New forecast layout! Learn more

10-Day Weather Forecast

Advertisements
Track Severe Weather on mobile